sensor_id;sensor_type;location;lat;lon;timestamp;temperature;humidity
22639;DHT22;11486;52.366;20.780;2022-07-21T00:00:16;17.00;99.90
22639;DHT22;11486;52.366;20.780;2022-07-21T00:02:44;16.90;99.90
22639;DHT22;11486;52.366;20.780;2022-07-21T00:05:12;16.80;99.90
22639;DHT22;11486;52.366;20.780;2022-07-21T00:07:39;16.80;99.90
22639;DHT22;11486;52.366;20.780;2022-07-21T00:10:07;16.80;99.90
22639;DHT22;11486;52.366;20.780;2022-07-21T00:12:35;16.80;99.90
22639;DHT22;11486;52.366;20.780;2022-07-21T00:15:04;16.80;99.90
22639;DHT22;11486;52.366;20.780;2022-07-21T00:17:32;16.70;99.90
22639;DHT22;11486;52.366;20.780;2022-07-21T00:20:00;16.60;99.90
22639;DHT22;11486;52.366;20.780;2022-07-21T00:22:28;16.60;99.90
22639;DHT22;11486;52.366;20.780;2022-07-21T00:24:55;16.60;99.90
22639;DHT22;11486;52.366;20.780;2022-07-21T00:27:24;16.60;99.90
22639;DHT22;11486;52.366;20.780;2022-07-21T00:29:52;16.60;99.90
22639;DHT22;11486;52.366;20.780;2022-07-21T00:32:19;16.40;99.90
22639;DHT22;11486;52.366;20.780;2022-07-21T00:34:47;16.30;99.90
22639;DHT22;11486;52.366;20.780;2022-07-21T00:37:14;16.30;99.90
22639;DHT22;11486;52.366;20.780;2022-07-21T00:39:42;16.20;99.90
22639;DHT22;11486;52.366;20.780;2022-07-21T00:42:20;16.20;99.90
22639;DHT22;11486;52.366;20.780;2022-07-21T00:44:48;16.20;99.90
22639;DHT22;11486;52.366;20.780;2022-07-21T00:47:21;16.10;99.90
22639;DHT22;11486;52.366;20.780;2022-07-21T00:49:50;16.10;99.90
22639;DHT22;11486;52.366;20.780;2022-07-21T00:52:18;16.00;99.90
22639;DHT22;11486;52.366;20.780;2022-07-21T00:54:46;16.00;99.90
22639;DHT22;11486;52.366;20.780;2022-07-21T00:57:14;16.00;99.90
22639;DHT22;11486;52.366;20.780;2022-07-21T00:59:43;16.00;99.90
22639;DHT22;11486;52.366;20.780;2022-07-21T01:02:11;16.00;99.90
22639;DHT22;11486;52.366;20.780;2022-07-21T01:04:40;16.00;99.90
22639;DHT22;11486;52.366;20.780;2022-07-21T01:07:07;15.90;99.90
22639;DHT22;11486;52.366;20.780;2022-07-21T01:09:36;15.90;99.90
22639;DHT22;11486;52.366;20.780;2022-07-21T01:12:04;15.80;99.90
22639;DHT22;11486;52.366;20.780;2022-07-21T01:14:32;15.70;99.90
22639;DHT22;11486;52.366;20.780;2022-07-21T01:17:02;15.70;99.90
22639;DHT22;11486;52.366;20.780;2022-07-21T01:19:30;15.50;99.90
22639;DHT22;11486;52.366;20.780;2022-07-21T01:21:58;15.40;99.90
22639;DHT22;11486;52.366;20.780;2022-07-21T01:24:26;15.50;99.90
22639;DHT22;11486;52.366;20.780;2022-07-21T01:26:53;15.40;99.90
22639;DHT22;11486;52.366;20.780;2022-07-21T01:29:23;15.40;99.90
22639;DHT22;11486;52.366;20.780;2022-07-21T01:31:50;15.30;99.90
22639;DHT22;11486;52.366;20.780;2022-07-21T01:34:18;15.30;99.90
22639;DHT22;11486;52.366;20.780;2022-07-21T01:36:46;15.20;99.90
22639;DHT22;11486;52.366;20.780;2022-07-21T01:39:14;15.30;99.90
22639;DHT22;11486;52.366;20.780;2022-07-21T01:41:59;15.40;99.90
22639;DHT22;11486;52.366;20.780;2022-07-21T01:44:27;15.30;99.90
22639;DHT22;11486;52.366;20.780;2022-07-21T01:46:55;15.20;99.90
22639;DHT22;11486;52.366;20.780;2022-07-21T01:49:23;15.20;99.90
22639;DHT22;11486;52.366;20.780;2022-07-21T01:51:51;15.10;99.90
22639;DHT22;11486;52.366;20.780;2022-07-21T01:54:18;15.10;99.90
22639;DHT22;11486;52.366;20.780;2022-07-21T01:56:46;15.10;99.90
22639;DHT22;11486;52.366;20.780;2022-07-21T01:59:13;15.00;99.90
22639;DHT22;11486;52.366;20.780;2022-07-21T02:01:41;14.90;99.90
22639;DHT22;11486;52.366;20.780;2022-07-21T02:04:08;14.90;99.90
22639;DHT22;11486;52.366;20.780;2022-07-21T02:06:36;14.90;99.90
22639;DHT22;11486;52.366;20.780;2022-07-21T02:09:04;14.80;99.90
22639;DHT22;11486;52.366;20.780;2022-07-21T02:11:33;14.80;99.90
22639;DHT22;11486;52.366;20.780;2022-07-21T02:14:01;14.70;99.90
22639;DHT22;11486;52.366;20.780;2022-07-21T02:16:29;14.70;99.90
22639;DHT22;11486;52.366;20.780;2022-07-21T02:18:56;14.80;99.90
22639;DHT22;11486;52.366;20.780;2022-07-21T02:21:24;14.70;99.90
22639;DHT22;11486;52.366;20.780;2022-07-21T02:23:52;14.60;99.90
22639;DHT22;11486;52.366;20.780;2022-07-21T02:26:19;14.70;99.90
22639;DHT22;11486;52.366;20.780;2022-07-21T02:28:47;14.60;99.90
22639;DHT22;11486;52.366;20.780;2022-07-21T02:31:15;14.60;99.90
22639;DHT22;11486;52.366;20.780;2022-07-21T02:33:43;14.60;99.90
22639;DHT22;11486;52.366;20.780;2022-07-21T02:36:10;14.60;99.90
22639;DHT22;11486;52.366;20.780;2022-07-21T02:38:38;14.60;99.90
22639;DHT22;11486;52.366;20.780;2022-07-21T02:41:06;14.50;99.90
22639;DHT22;11486;52.366;20.780;2022-07-21T02:43:33;14.50;99.90
22639;DHT22;11486;52.366;20.780;2022-07-21T02:46:01;14.50;99.90
22639;DHT22;11486;52.366;20.780;2022-07-21T02:48:29;14.50;99.90
22639;DHT22;11486;52.366;20.780;2022-07-21T02:50:56;14.40;99.90
22639;DHT22;11486;52.366;20.780;2022-07-21T02:53:24;14.40;99.90
22639;DHT22;11486;52.366;20.780;2022-07-21T02:55:52;14.40;99.90
22639;DHT22;11486;52.366;20.780;2022-07-21T02:58:22;14.40;99.90
22639;DHT22;11486;52.366;20.780;2022-07-21T03:01:04;14.40;99.90
22639;DHT22;11486;52.366;20.780;2022-07-21T03:03:29;14.30;99.90
22639;DHT22;11486;52.366;20.780;2022-07-21T03:05:57;14.20;99.90
22639;DHT22;11486;52.366;20.780;2022-07-21T03:08:25;14.20;99.90
22639;DHT22;11486;52.366;20.780;2022-07-21T03:10:53;14.20;99.90
22639;DHT22;11486;52.366;20.780;2022-07-21T03:13:21;14.30;99.90
22639;DHT22;11486;52.366;20.780;2022-07-21T03:15:49;14.30;99.90
22639;DHT22;11486;52.366;20.780;2022-07-21T03:18:16;14.30;99.90
22639;DHT22;11486;52.366;20.780;2022-07-21T03:20:45;14.30;99.90
22639;DHT22;11486;52.366;20.780;2022-07-21T03:23:12;14.30;99.90
22639;DHT22;11486;52.366;20.780;2022-07-21T03:25:40;14.30;99.90
22639;DHT22;11486;52.366;20.780;2022-07-21T03:28:08;14.20;99.90
22639;DHT22;11486;52.366;20.780;2022-07-21T03:30:36;14.30;99.90
22639;DHT22;11486;52.366;20.780;2022-07-21T03:33:04;14.30;99.90
22639;DHT22;11486;52.366;20.780;2022-07-21T03:35:33;14.30;99.90
22639;DHT22;11486;52.366;20.780;2022-07-21T03:38:02;14.30;99.90
22639;DHT22;11486;52.366;20.780;2022-07-21T03:40:33;14.30;99.90
22639;DHT22;11486;52.366;20.780;2022-07-21T03:43:02;14.30;99.90
22639;DHT22;11486;52.366;20.780;2022-07-21T03:45:31;14.40;99.90
22639;DHT22;11486;52.366;20.780;2022-07-21T03:48:00;14.40;99.90
22639;DHT22;11486;52.366;20.780;2022-07-21T03:50:28;14.50;99.90
22639;DHT22;11486;52.366;20.780;2022-07-21T03:52:57;14.50;99.90
22639;DHT22;11486;52.366;20.780;2022-07-21T03:55:24;14.60;99.90
22639;DHT22;11486;52.366;20.780;2022-07-21T03:57:55;14.60;99.90
22639;DHT22;11486;52.366;20.780;2022-07-21T04:00:29;14.70;99.90
22639;DHT22;11486;52.366;20.780;2022-07-21T04:02:53;14.80;99.90
22639;DHT22;11486;52.366;20.780;2022-07-21T04:05:21;14.90;99.90
22639;DHT22;11486;52.366;20.780;2022-07-21T04:07:51;15.00;99.90
22639;DHT22;11486;52.366;20.780;2022-07-21T04:10:24;15.00;99.90
22639;DHT22;11486;52.366;20.780;2022-07-21T04:12:53;15.00;99.90
22639;DHT22;11486;52.366;20.780;2022-07-21T04:15:22;15.10;99.90
22639;DHT22;11486;52.366;20.780;2022-07-21T04:17:50;15.10;99.90
22639;DHT22;11486;52.366;20.780;2022-07-21T04:20:18;15.20;99.90
22639;DHT22;11486;52.366;20.780;2022-07-21T04:22:47;15.30;99.90
22639;DHT22;11486;52.366;20.780;2022-07-21T04:25:17;15.40;99.90
22639;DHT22;11486;52.366;20.780;2022-07-21T04:27:45;15.50;99.90
22639;DHT22;11486;52.366;20.780;2022-07-21T04:30:18;15.50;99.90
22639;DHT22;11486;52.366;20.780;2022-07-21T04:32:46;15.60;99.90
22639;DHT22;11486;52.366;20.780;2022-07-21T04:35:14;15.70;99.90
22639;DHT22;11486;52.366;20.780;2022-07-21T04:37:43;15.80;99.90
22639;DHT22;11486;52.366;20.780;2022-07-21T04:40:12;15.90;99.90
22639;DHT22;11486;52.366;20.780;2022-07-21T04:42:40;16.00;99.90
22639;DHT22;11486;52.366;20.780;2022-07-21T04:45:10;16.10;99.90
22639;DHT22;11486;52.366;20.780;2022-07-21T04:47:52;16.20;99.90
22639;DHT22;11486;52.366;20.780;2022-07-21T04:50:22;16.30;99.90
22639;DHT22;11486;52.366;20.780;2022-07-21T04:52:51;16.40;99.90
22639;DHT22;11486;52.366;20.780;2022-07-21T04:55:19;16.50;99.90
22639;DHT22;11486;52.366;20.780;2022-07-21T04:57:49;16.70;99.90
22639;DHT22;11486;52.366;20.780;2022-07-21T05:00:23;16.80;99.90
22639;DHT22;11486;52.366;20.780;2022-07-21T05:02:48;16.90;99.90
22639;DHT22;11486;52.366;20.780;2022-07-21T05:05:15;17.10;99.90
22639;DHT22;11486;52.366;20.780;2022-07-21T05:07:43;17.20;99.90
22639;DHT22;11486;52.366;20.780;2022-07-21T05:10:13;17.40;99.90
22639;DHT22;11486;52.366;20.780;2022-07-21T05:12:41;17.50;99.90
22639;DHT22;11486;52.366;20.780;2022-07-21T05:15:09;17.60;99.90
22639;DHT22;11486;52.366;20.780;2022-07-21T05:17:38;17.80;99.90
22639;DHT22;11486;52.366;20.780;2022-07-21T05:20:07;17.90;99.90
22639;DHT22;11486;52.366;20.780;2022-07-21T05:22:35;18.10;99.90
22639;DHT22;11486;52.366;20.780;2022-07-21T05:25:03;18.40;99.90
22639;DHT22;11486;52.366;20.780;2022-07-21T05:27:31;18.70;99.90
22639;DHT22;11486;52.366;20.780;2022-07-21T05:29:59;18.90;99.90
22639;DHT22;11486;52.366;20.780;2022-07-21T05:32:26;19.10;99.90
22639;DHT22;11486;52.366;20.780;2022-07-21T05:34:54;19.30;99.90
22639;DHT22;11486;52.366;20.780;2022-07-21T05:37:21;19.50;99.90
22639;DHT22;11486;52.366;20.780;2022-07-21T05:39:49;19.60;99.90
22639;DHT22;11486;52.366;20.780;2022-07-21T05:42:16;19.90;99.90
22639;DHT22;11486;52.366;20.780;2022-07-21T05:44:44;20.10;99.90
22639;DHT22;11486;52.366;20.780;2022-07-21T05:47:11;20.30;99.90
22639;DHT22;11486;52.366;20.780;2022-07-21T05:49:39;20.50;99.90
22639;DHT22;11486;52.366;20.780;2022-07-21T05:52:06;20.60;98.80
22639;DHT22;11486;52.366;20.780;2022-07-21T05:54:34;20.80;97.80
22639;DHT22;11486;52.366;20.780;2022-07-21T05:57:01;20.90;98.50
22639;DHT22;11486;52.366;20.780;2022-07-21T05:59:29;21.00;97.80
22639;DHT22;11486;52.366;20.780;2022-07-21T06:01:57;21.10;96.00
22639;DHT22;11486;52.366;20.780;2022-07-21T06:04:24;21.20;95.20
22639;DHT22;11486;52.366;20.780;2022-07-21T06:06:52;21.50;94.50
22639;DHT22;11486;52.366;20.780;2022-07-21T06:09:20;21.50;92.90
22639;DHT22;11486;52.366;20.780;2022-07-21T06:11:48;21.60;92.60
22639;DHT22;11486;52.366;20.780;2022-07-21T06:14:15;21.60;92.60
22639;DHT22;11486;52.366;20.780;2022-07-21T06:16:43;21.70;91.70
22639;DHT22;11486;52.366;20.780;2022-07-21T06:19:10;21.80;92.20
22639;DHT22;11486;52.366;20.780;2022-07-21T06:21:38;22.00;87.00
22639;DHT22;11486;52.366;20.780;2022-07-21T06:24:08;22.10;86.70
22639;DHT22;11486;52.366;20.780;2022-07-21T06:26:36;22.30;84.80
22639;DHT22;11486;52.366;20.780;2022-07-21T06:29:04;22.30;87.00
22639;DHT22;11486;52.366;20.780;2022-07-21T06:31:33;22.40;87.40
22639;DHT22;11486;52.366;20.780;2022-07-21T06:34:01;22.50;84.60
22639;DHT22;11486;52.366;20.780;2022-07-21T06:36:28;22.60;84.10
22639;DHT22;11486;52.366;20.780;2022-07-21T06:38:59;22.70;80.00
22639;DHT22;11486;52.366;20.780;2022-07-21T06:41:27;22.80;78.50
22639;DHT22;11486;52.366;20.780;2022-07-21T06:43:54;22.90;78.10
22639;DHT22;11486;52.366;20.780;2022-07-21T06:46:22;23.00;80.40
22639;DHT22;11486;52.366;20.780;2022-07-21T06:48:50;23.10;78.70
22639;DHT22;11486;52.366;20.780;2022-07-21T06:51:17;23.20;75.80
22639;DHT22;11486;52.366;20.780;2022-07-21T06:53:45;23.20;74.50
22639;DHT22;11486;52.366;20.780;2022-07-21T06:56:13;23.30;72.50
22639;DHT22;11486;52.366;20.780;2022-07-21T06:58:40;23.40;74.60
22639;DHT22;11486;52.366;20.780;2022-07-21T07:01:08;23.40;71.00
22639;DHT22;11486;52.366;20.780;2022-07-21T07:03:36;23.50;74.40
22639;DHT22;11486;52.366;20.780;2022-07-21T07:06:05;23.60;71.90
22639;DHT22;11486;52.366;20.780;2022-07-21T07:08:33;23.70;73.40
22639;DHT22;11486;52.366;20.780;2022-07-21T07:11:01;23.80;72.20
22639;DHT22;11486;52.366;20.780;2022-07-21T07:13:28;24.00;71.40
22639;DHT22;11486;52.366;20.780;2022-07-21T07:15:56;24.10;69.70
22639;DHT22;11486;52.366;20.780;2022-07-21T07:18:25;24.10;70.40
22639;DHT22;11486;52.366;20.780;2022-07-21T07:20:52;24.30;71.40
22639;DHT22;11486;52.366;20.780;2022-07-21T07:23:20;24.30;67.60
22639;DHT22;11486;52.366;20.780;2022-07-21T07:25:47;24.50;65.90
22639;DHT22;11486;52.366;20.780;2022-07-21T07:28:16;24.50;65.00
22639;DHT22;11486;52.366;20.780;2022-07-21T07:30:44;24.50;63.90
22639;DHT22;11486;52.366;20.780;2022-07-21T07:33:11;24.50;64.90
22639;DHT22;11486;52.366;20.780;2022-07-21T07:35:39;24.60;64.50
22639;DHT22;11486;52.366;20.780;2022-07-21T07:38:06;24.70;64.40
22639;DHT22;11486;52.366;20.780;2022-07-21T07:40:34;24.70;64.40
22639;DHT22;11486;52.366;20.780;2022-07-21T07:43:02;24.80;64.80
22639;DHT22;11486;52.366;20.780;2022-07-21T07:45:30;24.90;63.90
22639;DHT22;11486;52.366;20.780;2022-07-21T07:47:57;25.10;64.60
22639;DHT22;11486;52.366;20.780;2022-07-21T07:50:25;25.10;63.80
22639;DHT22;11486;52.366;20.780;2022-07-21T07:52:53;25.30;61.60
22639;DHT22;11486;52.366;20.780;2022-07-21T07:55:20;25.40;61.70
22639;DHT22;11486;52.366;20.780;2022-07-21T07:57:48;25.50;59.80
22639;DHT22;11486;52.366;20.780;2022-07-21T08:00:17;25.50;59.60
22639;DHT22;11486;52.366;20.780;2022-07-21T08:02:45;25.50;60.70
22639;DHT22;11486;52.366;20.780;2022-07-21T08:05:13;25.70;61.40
22639;DHT22;11486;52.366;20.780;2022-07-21T08:07:41;25.90;61.80
22639;DHT22;11486;52.366;20.780;2022-07-21T08:10:12;25.90;60.20
22639;DHT22;11486;52.366;20.780;2022-07-21T08:12:41;26.00;61.80
22639;DHT22;11486;52.366;20.780;2022-07-21T08:15:09;26.30;59.10
22639;DHT22;11486;52.366;20.780;2022-07-21T08:17:36;26.80;58.30
22639;DHT22;11486;52.366;20.780;2022-07-21T08:20:05;27.50;54.00
22639;DHT22;11486;52.366;20.780;2022-07-21T08:22:33;28.20;54.20
22639;DHT22;11486;52.366;20.780;2022-07-21T08:25:00;29.20;50.00
22639;DHT22;11486;52.366;20.780;2022-07-21T08:27:28;30.30;46.60
22639;DHT22;11486;52.366;20.780;2022-07-21T08:29:55;31.30;45.30
22639;DHT22;11486;52.366;20.780;2022-07-21T08:32:23;32.40;45.10
22639;DHT22;11486;52.366;20.780;2022-07-21T08:34:50;33.50;42.50
22639;DHT22;11486;52.366;20.780;2022-07-21T08:37:19;34.70;39.60
22639;DHT22;11486;52.366;20.780;2022-07-21T08:39:47;35.90;36.20
22639;DHT22;11486;52.366;20.780;2022-07-21T08:42:15;36.50;34.70
22639;DHT22;11486;52.366;20.780;2022-07-21T08:44:43;37.10;33.10
22639;DHT22;11486;52.366;20.780;2022-07-21T08:47:11;37.50;34.20
22639;DHT22;11486;52.366;20.780;2022-07-21T08:49:39;38.20;33.80
22639;DHT22;11486;52.366;20.780;2022-07-21T08:52:07;38.90;29.90
22639;DHT22;11486;52.366;20.780;2022-07-21T08:54:35;39.70;28.30
22639;DHT22;11486;52.366;20.780;2022-07-21T08:57:03;39.90;27.80
22639;DHT22;11486;52.366;20.780;2022-07-21T08:59:30;40.00;29.50
22639;DHT22;11486;52.366;20.780;2022-07-21T09:01:58;40.80;28.40
22639;DHT22;11486;52.366;20.780;2022-07-21T09:04:29;41.20;28.70
22639;DHT22;11486;52.366;20.780;2022-07-21T09:06:59;41.60;27.80
22639;DHT22;11486;52.366;20.780;2022-07-21T09:09:28;41.80;27.00
22639;DHT22;11486;52.366;20.780;2022-07-21T09:11:57;42.20;25.90
22639;DHT22;11486;52.366;20.780;2022-07-21T09:14:27;43.00;24.90
22639;DHT22;11486;52.366;20.780;2022-07-21T09:16:57;43.30;26.10
22639;DHT22;11486;52.366;20.780;2022-07-21T09:19:31;44.00;25.70
22639;DHT22;11486;52.366;20.780;2022-07-21T09:22:00;44.20;24.30
22639;DHT22;11486;52.366;20.780;2022-07-21T09:24:33;44.40;23.70
22639;DHT22;11486;52.366;20.780;2022-07-21T09:32:24;44.70;24.80
22639;DHT22;11486;52.366;20.780;2022-07-21T09:34:58;45.50;23.40
22639;DHT22;11486;52.366;20.780;2022-07-21T09:37:23;46.10;22.50
22639;DHT22;11486;52.366;20.780;2022-07-21T09:39:56;46.30;22.00
22639;DHT22;11486;52.366;20.780;2022-07-21T09:42:29;46.10;23.30
22639;DHT22;11486;52.366;20.780;2022-07-21T09:45:00;46.10;22.40
22639;DHT22;11486;52.366;20.780;2022-07-21T09:47:29;46.00;23.10
22639;DHT22;11486;52.366;20.780;2022-07-21T09:49:58;46.50;22.70
22639;DHT22;11486;52.366;20.780;2022-07-21T09:52:37;47.20;23.50
22639;DHT22;11486;52.366;20.780;2022-07-21T09:55:10;47.60;22.60
22639;DHT22;11486;52.366;20.780;2022-07-21T09:57:39;47.60;21.20
22639;DHT22;11486;52.366;20.780;2022-07-21T10:00:09;47.90;21.40
22639;DHT22;11486;52.366;20.780;2022-07-21T10:02:37;48.50;21.40
22639;DHT22;11486;52.366;20.780;2022-07-21T10:05:07;49.00;20.50
22639;DHT22;11486;52.366;20.780;2022-07-21T10:07:40;49.30;21.50
22639;DHT22;11486;52.366;20.780;2022-07-21T10:10:09;49.70;21.20
22639;DHT22;11486;52.366;20.780;2022-07-21T10:12:37;49.90;20.90
22639;DHT22;11486;52.366;20.780;2022-07-21T10:15:05;50.10;20.70
22639;DHT22;11486;52.366;20.780;2022-07-21T10:17:32;50.20;20.80
22639;DHT22;11486;52.366;20.780;2022-07-21T10:20:13;50.60;20.60
22639;DHT22;11486;52.366;20.780;2022-07-21T10:23:06;50.50;19.50
22639;DHT22;11486;52.366;20.780;2022-07-21T10:25:32;50.60;19.70
22639;DHT22;11486;52.366;20.780;2022-07-21T10:28:14;50.40;19.70
22639;DHT22;11486;52.366;20.780;2022-07-21T10:30:46;50.40;21.40
22639;DHT22;11486;52.366;20.780;2022-07-21T10:33:16;50.80;20.20
22639;DHT22;11486;52.366;20.780;2022-07-21T10:35:46;51.10;20.90
22639;DHT22;11486;52.366;20.780;2022-07-21T10:38:34;51.90;19.60
22639;DHT22;11486;52.366;20.780;2022-07-21T10:41:04;51.90;18.60
22639;DHT22;11486;52.366;20.780;2022-07-21T10:46:03;50.80;19.80
22639;DHT22;11486;52.366;20.780;2022-07-21T10:51:15;50.30;20.80
22639;DHT22;11486;52.366;20.780;2022-07-21T10:53:44;51.00;19.70
22639;DHT22;11486;52.366;20.780;2022-07-21T10:56:32;51.60;19.60
22639;DHT22;11486;52.366;20.780;2022-07-21T10:58:47;52.10;19.20
22639;DHT22;11486;52.366;20.780;2022-07-21T11:01:20;52.60;18.60
22639;DHT22;11486;52.366;20.780;2022-07-21T11:04:12;52.90;18.30
22639;DHT22;11486;52.366;20.780;2022-07-21T11:06:38;52.70;18.70
22639;DHT22;11486;52.366;20.780;2022-07-21T11:09:08;53.10;19.20
22639;DHT22;11486;52.366;20.780;2022-07-21T11:12:05;53.30;18.70
22639;DHT22;11486;52.366;20.780;2022-07-21T11:14:41;52.70;18.30
22639;DHT22;11486;52.366;20.780;2022-07-21T11:17:12;52.20;18.90
22639;DHT22;11486;52.366;20.780;2022-07-21T11:19:47;52.30;18.90
22639;DHT22;11486;52.366;20.780;2022-07-21T11:22:19;53.10;18.80
22639;DHT22;11486;52.366;20.780;2022-07-21T11:24:49;53.90;19.50
22639;DHT22;11486;52.366;20.780;2022-07-21T11:27:19;54.50;18.30
22639;DHT22;11486;52.366;20.780;2022-07-21T11:29:49;54.40;17.90
22639;DHT22;11486;52.366;20.780;2022-07-21T11:32:17;54.30;18.30
22639;DHT22;11486;52.366;20.780;2022-07-21T11:34:48;53.60;18.20
22639;DHT22;11486;52.366;20.780;2022-07-21T11:37:27;53.50;17.80
22639;DHT22;11486;52.366;20.780;2022-07-21T11:39:46;53.20;19.20
22639;DHT22;11486;52.366;20.780;2022-07-21T11:42:14;53.70;19.20
22639;DHT22;11486;52.366;20.780;2022-07-21T11:44:43;54.50;18.80
22639;DHT22;11486;52.366;20.780;2022-07-21T11:47:13;55.40;18.40
22639;DHT22;11486;52.366;20.780;2022-07-21T11:49:42;56.00;17.70
22639;DHT22;11486;52.366;20.780;2022-07-21T11:52:15;54.80;17.60
22639;DHT22;11486;52.366;20.780;2022-07-21T11:54:49;54.90;19.50
22639;DHT22;11486;52.366;20.780;2022-07-21T11:57:20;55.40;17.70
22639;DHT22;11486;52.366;20.780;2022-07-21T11:59:49;55.70;18.20
22639;DHT22;11486;52.366;20.780;2022-07-21T12:02:19;55.40;17.30
22639;DHT22;11486;52.366;20.780;2022-07-21T12:04:59;55.40;17.00
22639;DHT22;11486;52.366;20.780;2022-07-21T12:07:28;55.30;16.70
22639;DHT22;11486;52.366;20.780;2022-07-21T12:10:02;54.40;18.20
22639;DHT22;11486;52.366;20.780;2022-07-21T12:15:14;54.80;16.90
22639;DHT22;11486;52.366;20.780;2022-07-21T12:17:48;54.60;17.80
22639;DHT22;11486;52.366;20.780;2022-07-21T12:20:31;54.20;17.40
22639;DHT22;11486;52.366;20.780;2022-07-21T12:23:01;54.80;17.50
22639;DHT22;11486;52.366;20.780;2022-07-21T12:25:39;55.10;17.50
22639;DHT22;11486;52.366;20.780;2022-07-21T12:28:05;55.70;16.80
22639;DHT22;11486;52.366;20.780;2022-07-21T12:30:35;55.30;16.90
22639;DHT22;11486;52.366;20.780;2022-07-21T12:33:14;55.00;16.90
22639;DHT22;11486;52.366;20.780;2022-07-21T12:36:08;55.20;17.10
22639;DHT22;11486;52.366;20.780;2022-07-21T12:38:17;55.20;16.80
22639;DHT22;11486;52.366;20.780;2022-07-21T12:40:49;55.20;17.40
22639;DHT22;11486;52.366;20.780;2022-07-21T12:43:21;55.00;17.10
22639;DHT22;11486;52.366;20.780;2022-07-21T12:45:54;54.70;17.70
22639;DHT22;11486;52.366;20.780;2022-07-21T12:48:30;54.50;18.00
22639;DHT22;11486;52.366;20.780;2022-07-21T12:51:24;55.00;18.00
22639;DHT22;11486;52.366;20.780;2022-07-21T12:53:34;55.40;17.50
22639;DHT22;11486;52.366;20.780;2022-07-21T12:56:03;56.00;17.50
22639;DHT22;11486;52.366;20.780;2022-07-21T12:58:31;56.10;17.90
22639;DHT22;11486;52.366;20.780;2022-07-21T13:00:58;56.40;17.10
22639;DHT22;11486;52.366;20.780;2022-07-21T13:03:30;56.40;16.60
22639;DHT22;11486;52.366;20.780;2022-07-21T13:05:59;55.70;17.30
22639;DHT22;11486;52.366;20.780;2022-07-21T13:08:28;55.70;17.00
22639;DHT22;11486;52.366;20.780;2022-07-21T13:10:56;55.10;17.10
22639;DHT22;11486;52.366;20.780;2022-07-21T13:13:26;54.40;17.80
22639;DHT22;11486;52.366;20.780;2022-07-21T13:15:54;53.80;17.70
22639;DHT22;11486;52.366;20.780;2022-07-21T13:18:22;53.80;18.60
22639;DHT22;11486;52.366;20.780;2022-07-21T13:20:53;54.40;18.30
22639;DHT22;11486;52.366;20.780;2022-07-21T13:23:21;54.90;17.30
22639;DHT22;11486;52.366;20.780;2022-07-21T13:25:49;54.60;17.70
22639;DHT22;11486;52.366;20.780;2022-07-21T13:28:17;54.40;17.70
22639;DHT22;11486;52.366;20.780;2022-07-21T13:30:46;54.30;18.10
22639;DHT22;11486;52.366;20.780;2022-07-21T13:33:14;54.60;17.60
22639;DHT22;11486;52.366;20.780;2022-07-21T13:35:43;54.40;17.80
22639;DHT22;11486;52.366;20.780;2022-07-21T13:38:11;54.50;17.60
22639;DHT22;11486;52.366;20.780;2022-07-21T13:40:39;52.90;18.60
22639;DHT22;11486;52.366;20.780;2022-07-21T13:43:06;53.40;18.60
22639;DHT22;11486;52.366;20.780;2022-07-21T13:45:34;54.10;18.70
22639;DHT22;11486;52.366;20.780;2022-07-21T13:48:02;54.40;18.00
22639;DHT22;11486;52.366;20.780;2022-07-21T13:50:29;54.60;18.20
22639;DHT22;11486;52.366;20.780;2022-07-21T13:52:57;54.60;17.60
22639;DHT22;11486;52.366;20.780;2022-07-21T13:55:25;54.00;18.70
22639;DHT22;11486;52.366;20.780;2022-07-21T13:57:52;53.80;18.80
22639;DHT22;11486;52.366;20.780;2022-07-21T14:00:20;53.60;18.20
22639;DHT22;11486;52.366;20.780;2022-07-21T14:02:48;53.30;19.00
22639;DHT22;11486;52.366;20.780;2022-07-21T14:05:15;52.50;19.40
22639;DHT22;11486;52.366;20.780;2022-07-21T14:07:44;50.70;20.60
22639;DHT22;11486;52.366;20.780;2022-07-21T14:10:11;49.00;21.00
22639;DHT22;11486;52.366;20.780;2022-07-21T14:12:41;48.00;21.80
22639;DHT22;11486;52.366;20.780;2022-07-21T14:15:09;46.90;22.60
22639;DHT22;11486;52.366;20.780;2022-07-21T14:17:37;45.40;24.20
22639;DHT22;11486;52.366;20.780;2022-07-21T14:20:06;43.80;24.40
22639;DHT22;11486;52.366;20.780;2022-07-21T14:22:35;42.50;25.60
22639;DHT22;11486;52.366;20.780;2022-07-21T14:25:05;41.30;27.00
22639;DHT22;11486;52.366;20.780;2022-07-21T14:27:50;40.60;27.10
22639;DHT22;11486;52.366;20.780;2022-07-21T14:30:19;39.90;27.90
22639;DHT22;11486;52.366;20.780;2022-07-21T14:32:48;39.20;28.60
22639;DHT22;11486;52.366;20.780;2022-07-21T14:35:16;38.70;28.70
22639;DHT22;11486;52.366;20.780;2022-07-21T14:37:49;38.00;29.90
22639;DHT22;11486;52.366;20.780;2022-07-21T14:40:18;37.50;30.50
22639;DHT22;11486;52.366;20.780;2022-07-21T14:42:46;37.20;30.30
22639;DHT22;11486;52.366;20.780;2022-07-21T14:45:15;37.00;32.40
22639;DHT22;11486;52.366;20.780;2022-07-21T14:47:43;36.70;32.00
22639;DHT22;11486;52.366;20.780;2022-07-21T14:50:13;36.40;32.80
22639;DHT22;11486;52.366;20.780;2022-07-21T14:52:41;36.10;32.50
22639;DHT22;11486;52.366;20.780;2022-07-21T14:55:09;36.00;34.80
22639;DHT22;11486;52.366;20.780;2022-07-21T14:57:37;35.90;33.70
22639;DHT22;11486;52.366;20.780;2022-07-21T15:00:07;35.70;33.70
22639;DHT22;11486;52.366;20.780;2022-07-21T15:02:36;35.40;34.00
22639;DHT22;11486;52.366;20.780;2022-07-21T15:05:04;35.20;33.20
22639;DHT22;11486;52.366;20.780;2022-07-21T15:07:33;35.00;34.10
22639;DHT22;11486;52.366;20.780;2022-07-21T15:10:01;34.80;34.30
22639;DHT22;11486;52.366;20.780;2022-07-21T15:12:29;34.70;34.90
22639;DHT22;11486;52.366;20.780;2022-07-21T15:14:57;34.60;34.80
22639;DHT22;11486;52.366;20.780;2022-07-21T15:17:25;34.50;33.90
22639;DHT22;11486;52.366;20.780;2022-07-21T15:19:54;34.40;34.80
22639;DHT22;11486;52.366;20.780;2022-07-21T15:22:25;34.30;34.70
22639;DHT22;11486;52.366;20.780;2022-07-21T15:24:56;34.20;35.40
22639;DHT22;11486;52.366;20.780;2022-07-21T15:27:24;34.20;35.40
22639;DHT22;11486;52.366;20.780;2022-07-21T15:29:52;34.10;36.60
22639;DHT22;11486;52.366;20.780;2022-07-21T15:32:19;34.20;36.20
22639;DHT22;11486;52.366;20.780;2022-07-21T15:34:50;34.00;35.60
22639;DHT22;11486;52.366;20.780;2022-07-21T15:37:18;33.90;37.70
22639;DHT22;11486;52.366;20.780;2022-07-21T15:39:45;33.90;37.90